createdAt,value
2023-03-03T00:09:57.874Z,-1.40
2023-03-03T00:12:28.220Z,-1.40
2023-03-03T00:17:27.408Z,-1.40
2023-03-03T00:22:30.602Z,-1.50
2023-03-03T00:25:03.571Z,-1.60
2023-03-03T00:27:35.997Z,-1.60
2023-03-03T00:32:39.565Z,-1.70
2023-03-03T00:35:25.079Z,-1.70
2023-03-03T00:37:57.038Z,-1.60
2023-03-03T00:40:28.440Z,-1.60
2023-03-03T00:42:58.872Z,-1.70
2023-03-03T00:45:32.921Z,-1.70
2023-03-03T00:48:11.311Z,-1.80
2023-03-03T00:50:44.297Z,-1.80
2023-03-03T00:53:14.766Z,-1.70
2023-03-03T00:55:46.594Z,-0.40
2023-03-03T01:03:19.931Z,-2.00
2023-03-03T01:08:16.618Z,-2.00
2023-03-03T01:10:50.857Z,-1.90
2023-03-03T01:13:20.197Z,-1.90
2023-03-03T01:28:11.731Z,-2.00
2023-03-03T01:33:08.025Z,-2.10
2023-03-03T01:45:33.413Z,-2.30
2023-03-03T01:48:04.552Z,-1.00
2023-03-03T01:50:46.849Z,-2.40
2023-03-03T01:53:19.831Z,-2.40
2023-03-03T01:55:51.451Z,-2.40
2023-03-03T01:58:22.624Z,-2.40
2023-03-03T02:00:56.480Z,-2.40
2023-03-03T02:03:25.665Z,-2.40
2023-03-03T02:05:56.446Z,-2.30
2023-03-03T02:08:31.597Z,-2.40
2023-03-03T02:15:59.195Z,-2.50
2023-03-03T02:20:59.420Z,-2.60
2023-03-03T02:23:35.492Z,-2.50
2023-03-03T02:26:08.299Z,-2.50
2023-03-03T02:28:37.851Z,-2.60
2023-03-03T02:31:10.803Z,-2.60
2023-03-03T02:33:38.922Z,-2.70
2023-03-03T02:36:07.415Z,-2.70
2023-03-03T02:38:42.229Z,-2.70
2023-03-03T02:41:17.602Z,-2.70
2023-03-03T02:43:52.060Z,-2.60
2023-03-03T02:56:14.837Z,-2.70
2023-03-03T03:06:08.894Z,-2.80
2023-03-03T03:08:36.986Z,-2.80
2023-03-03T03:11:06.185Z,-2.90
2023-03-03T03:13:38.146Z,-2.70
2023-03-03T03:16:06.600Z,-2.70
2023-03-03T03:21:10.573Z,-2.50
2023-03-03T03:26:07.576Z,-2.50
2023-03-03T03:31:07.269Z,-2.40
2023-03-03T03:33:35.826Z,-2.30
2023-03-03T03:36:04.702Z,-2.30
2023-03-03T03:48:27.762Z,-2.00
2023-03-03T03:55:53.066Z,-1.90
2023-03-03T04:00:50.373Z,-2.00
2023-03-03T04:03:18.521Z,-2.00
2023-03-03T04:05:47.831Z,-2.10
2023-03-03T04:13:12.674Z,-2.20
2023-03-03T04:15:45.692Z,-2.20
2023-03-03T04:23:12.857Z,-2.40
2023-03-03T04:25:40.782Z,-2.50
2023-03-03T04:28:08.728Z,-2.60
2023-03-03T04:33:05.146Z,-2.50
2023-03-03T04:38:01.493Z,-2.50
2023-03-03T04:40:32.597Z,-2.50
2023-03-03T04:57:51.832Z,-2.50
2023-03-03T05:02:49.632Z,-2.50
2023-03-03T05:05:17.655Z,-2.50
2023-03-03T05:15:12.623Z,-2.40
2023-03-03T05:20:10.835Z,-2.40
2023-03-03T05:25:09.233Z,-2.40
2023-03-03T05:30:06.424Z,-2.40
2023-03-03T05:32:35.946Z,-2.40
2023-03-03T05:37:32.211Z,-2.30
2023-03-03T05:47:24.958Z,-2.20
2023-03-03T05:49:54.176Z,-2.20
2023-03-03T06:07:15.497Z,-2.30
2023-03-03T06:19:37.729Z,-2.10
2023-03-03T06:24:35.376Z,-2.00
2023-03-03T06:41:55.005Z,-1.70
2023-03-03T06:54:17.814Z,-1.20
2023-03-03T06:56:47.039Z,-1.10
2023-03-03T06:59:18.097Z,-1.00
2023-03-03T07:04:30.900Z,-0.90
2023-03-03T07:07:00.955Z,-0.80
2023-03-03T07:09:30.482Z,-0.70
2023-03-03T07:12:03.379Z,-0.60
2023-03-03T07:14:34.459Z,-0.40
2023-03-03T07:17:03.142Z,-0.30
2023-03-03T07:19:34.642Z,-0.20
2023-03-03T07:22:13.887Z,0.00
2023-03-03T07:24:42.530Z,0.20
2023-03-03T07:27:14.728Z,0.30
2023-03-03T07:29:47.708Z,0.40
2023-03-03T07:32:26.410Z,0.50
2023-03-03T07:34:56.140Z,0.60
2023-03-03T07:37:36.392Z,0.50
2023-03-03T07:40:27.017Z,0.70
2023-03-03T07:45:28.610Z,1.30
2023-03-03T07:48:02.495Z,1.50
2023-03-03T07:50:30.432Z,1.60
2023-03-03T07:53:00.930Z,1.80
2023-03-03T07:55:35.041Z,1.60
2023-03-03T07:58:22.049Z,1.70
2023-03-03T08:01:22.904Z,1.90
2023-03-03T08:03:53.430Z,1.80
2023-03-03T08:07:03.656Z,2.00
2023-03-03T08:09:51.097Z,2.40
2023-03-03T08:12:41.873Z,2.80
2023-03-03T08:15:18.865Z,3.30
2023-03-03T08:17:47.924Z,3.60
2023-03-03T08:20:47.115Z,3.60
2023-03-03T08:23:16.755Z,3.70
2023-03-03T08:28:14.098Z,3.70
2023-03-03T08:30:42.892Z,3.80
2023-03-03T08:33:11.180Z,4.10
2023-03-03T08:35:39.571Z,4.20
2023-03-03T08:38:09.629Z,4.60
2023-03-03T08:40:38.434Z,4.80
2023-03-03T08:43:06.923Z,4.80
2023-03-03T08:45:35.460Z,5.20
2023-03-03T08:48:06.039Z,5.30
2023-03-03T08:50:39.104Z,5.60
2023-03-03T08:53:10.037Z,6.00
2023-03-03T08:55:38.103Z,6.10
2023-03-03T08:58:06.238Z,6.20
2023-03-03T09:00:34.569Z,6.40
2023-03-03T09:05:31.681Z,6.50
2023-03-03T09:08:00.503Z,6.40
2023-03-03T09:10:31.846Z,6.10
2023-03-03T09:13:03.946Z,6.50
2023-03-03T09:15:34.036Z,7.00
2023-03-03T09:18:14.344Z,7.10
2023-03-03T09:20:44.287Z,7.40
2023-03-03T09:23:33.747Z,7.00
2023-03-03T09:26:23.236Z,7.10
2023-03-03T09:31:26.935Z,8.20
2023-03-03T09:36:47.467Z,9.10
2023-03-03T09:39:37.827Z,9.70
2023-03-03T09:42:22.030Z,10.00
2023-03-03T09:45:27.093Z,11.10
2023-03-03T09:48:23.926Z,11.70
2023-03-03T09:51:03.333Z,12.30
2023-03-03T09:53:48.601Z,12.00
2023-03-03T09:56:22.688Z,12.10
2023-03-03T09:59:06.915Z,12.60
2023-03-03T10:01:49.983Z,12.30
2023-03-03T10:04:40.835Z,11.90
2023-03-03T10:07:21.429Z,13.50
2023-03-03T10:10:15.790Z,14.70
2023-03-03T10:12:54.007Z,12.60
2023-03-03T10:15:33.994Z,12.60
2023-03-03T10:18:10.365Z,13.90
2023-03-03T10:20:51.161Z,12.40
2023-03-03T10:23:25.327Z,12.60
2023-03-03T10:26:07.170Z,12.70
2023-03-03T10:28:57.322Z,11.60
2023-03-03T10:31:52.659Z,11.40
2023-03-03T10:34:51.016Z,11.20
2023-03-03T10:37:29.597Z,11.30
2023-03-03T10:40:20.871Z,10.70
2023-03-03T10:43:04.296Z,12.50
2023-03-03T10:46:02.314Z,13.50
2023-03-03T10:48:47.606Z,15.10
2023-03-03T10:51:28.130Z,16.20
2023-03-03T10:54:23.635Z,15.50
2023-03-03T10:57:04.332Z,14.70
2023-03-03T10:59:54.318Z,15.80
2023-03-03T11:02:50.221Z,16.40
2023-03-03T11:05:34.552Z,17.20
2023-03-03T11:08:36.555Z,16.60
2023-03-03T11:11:30.569Z,16.80
2023-03-03T11:14:08.383Z,18.10
2023-03-03T11:16:59.821Z,17.00
2023-03-03T11:19:47.803Z,17.40
2023-03-03T11:22:31.742Z,18.20
2023-03-03T11:25:14.576Z,18.90
2023-03-03T11:28:12.749Z,19.30
2023-03-03T11:31:05.452Z,19.00
2023-03-03T11:33:40.039Z,16.80
2023-03-03T11:36:19.024Z,15.00
2023-03-03T11:38:56.203Z,14.10
2023-03-03T11:41:42.569Z,15.10
2023-03-03T11:44:26.968Z,15.70
2023-03-03T11:47:03.577Z,15.20
2023-03-03T11:49:37.378Z,15.00
2023-03-03T11:52:17.007Z,14.70
2023-03-03T11:54:53.950Z,15.10
2023-03-03T11:57:29.072Z,15.20
2023-03-03T12:00:15.005Z,16.20
2023-03-03T12:03:03.742Z,15.90
2023-03-03T12:05:42.832Z,15.70
2023-03-03T12:08:25.152Z,15.90
2023-03-03T12:11:02.339Z,16.00
2023-03-03T12:13:39.897Z,17.10
2023-03-03T12:16:17.105Z,17.90
2023-03-03T12:18:58.524Z,18.20
2023-03-03T12:21:35.984Z,16.30
2023-03-03T12:24:19.582Z,16.00
2023-03-03T12:26:59.774Z,16.00
2023-03-03T12:29:34.016Z,16.20
2023-03-03T12:32:12.047Z,16.70
2023-03-03T12:34:45.276Z,17.20
2023-03-03T12:37:29.967Z,16.90
2023-03-03T12:40:04.789Z,17.20
2023-03-03T12:42:48.042Z,18.10
2023-03-03T12:45:38.933Z,18.70
2023-03-03T12:48:11.918Z,19.80
2023-03-03T12:50:51.561Z,19.40
2023-03-03T12:53:33.730Z,20.00
2023-03-03T12:56:06.092Z,19.80
2023-03-03T12:58:45.114Z,18.00
2023-03-03T13:01:28.566Z,16.90
2023-03-03T13:04:06.569Z,16.40
2023-03-03T13:06:41.019Z,17.10
2023-03-03T13:09:25.015Z,17.10
2023-03-03T13:12:19.996Z,17.10
2023-03-03T13:14:53.810Z,17.20
2023-03-03T13:17:28.557Z,15.70
2023-03-03T13:20:01.134Z,15.80
2023-03-03T13:22:47.884Z,15.90
2023-03-03T13:25:35.290Z,16.70
2023-03-03T13:28:11.996Z,16.70
2023-03-03T13:30:57.892Z,18.90
2023-03-03T13:33:29.683Z,16.20
2023-03-03T13:36:00.770Z,16.70
2023-03-03T13:38:32.409Z,16.60
2023-03-03T13:41:11.624Z,15.50
2023-03-03T13:43:47.546Z,15.20
2023-03-03T13:46:25.896Z,15.30
2023-03-03T13:49:21.794Z,16.10
2023-03-03T13:51:56.696Z,15.40
2023-03-03T13:54:51.948Z,14.50
2023-03-03T13:57:39.014Z,16.40
2023-03-03T14:00:19.272Z,16.10
2023-03-03T14:03:08.982Z,16.30
2023-03-03T14:05:46.682Z,17.90
2023-03-03T14:08:27.725Z,18.40
2023-03-03T14:11:08.792Z,18.70
2023-03-03T14:13:47.716Z,19.60
2023-03-03T14:16:24.495Z,19.70
2023-03-03T14:18:59.699Z,18.90
2023-03-03T14:21:42.327Z,18.40
2023-03-03T14:24:23.259Z,18.40
2023-03-03T14:26:53.723Z,18.80
2023-03-03T14:29:33.545Z,18.00
2023-03-03T14:32:30.497Z,17.90
2023-03-03T14:35:30.325Z,18.30
2023-03-03T14:38:14.940Z,18.00
2023-03-03T14:41:15.465Z,16.90
2023-03-03T14:44:03.926Z,16.00
2023-03-03T14:46:40.490Z,15.10
2023-03-03T14:49:32.074Z,14.90
2023-03-03T14:52:11.885Z,14.90
2023-03-03T14:54:42.766Z,15.20
2023-03-03T14:57:17.845Z,15.40
2023-03-03T15:00:06.883Z,15.20
2023-03-03T15:02:42.002Z,13.30
2023-03-03T15:05:19.485Z,12.90
2023-03-03T15:07:53.304Z,12.80
2023-03-03T15:10:36.615Z,12.50
2023-03-03T15:13:30.102Z,12.70
2023-03-03T15:16:18.521Z,12.00
2023-03-03T15:19:10.569Z,11.60
2023-03-03T15:22:02.060Z,11.30
2023-03-03T15:24:43.955Z,11.00
2023-03-03T15:27:39.082Z,10.70
2023-03-03T15:31:01.942Z,10.50
2023-03-03T15:33:47.569Z,10.40
2023-03-03T15:37:11.101Z,10.10
2023-03-03T15:40:01.061Z,10.00
2023-03-03T15:42:50.633Z,10.00
2023-03-03T15:45:31.967Z,9.90
2023-03-03T15:48:23.763Z,9.80
2023-03-03T15:51:10.956Z,9.70
2023-03-03T15:54:06.507Z,9.70
2023-03-03T15:56:43.062Z,9.60
2023-03-03T15:59:47.373Z,9.60
2023-03-03T16:02:19.438Z,9.40
2023-03-03T16:04:55.992Z,9.40
2023-03-03T16:07:33.321Z,9.30
2023-03-03T16:10:12.213Z,9.20
2023-03-03T16:12:52.987Z,9.10
2023-03-03T16:15:47.085Z,9.10
2023-03-03T16:18:26.392Z,8.90
2023-03-03T16:21:11.703Z,8.80
2023-03-03T16:23:47.895Z,8.70
2023-03-03T16:26:34.164Z,8.60
2023-03-03T16:29:22.479Z,8.50
2023-03-03T16:31:54.475Z,8.40
2023-03-03T16:34:31.678Z,8.30
2023-03-03T16:37:08.418Z,8.20
2023-03-03T16:39:51.865Z,8.10
2023-03-03T16:42:27.130Z,8.00
2023-03-03T16:45:07.744Z,7.80
2023-03-03T16:47:49.946Z,7.70
2023-03-03T16:50:27.364Z,7.60
2023-03-03T16:53:02.252Z,7.50
2023-03-03T16:55:36.241Z,7.40
2023-03-03T16:58:20.335Z,7.20
2023-03-03T17:00:56.719Z,7.10
2023-03-03T17:03:41.502Z,7.00
2023-03-03T17:06:16.928Z,6.80
2023-03-03T17:09:01.883Z,6.60
2023-03-03T17:11:39.573Z,6.50
2023-03-03T17:14:34.597Z,6.30
2023-03-03T17:17:12.923Z,6.10
2023-03-03T17:19:58.609Z,6.00
2023-03-03T17:22:34.335Z,5.80
2023-03-03T17:25:13.689Z,5.70
2023-03-03T17:28:12.581Z,5.60
2023-03-03T17:30:49.613Z,5.40
2023-03-03T17:33:30.404Z,5.40
2023-03-03T17:36:24.937Z,5.30
2023-03-03T17:39:05.230Z,5.10
2023-03-03T17:41:37.941Z,5.00
2023-03-03T17:44:11.104Z,5.00
2023-03-03T17:46:46.179Z,4.90
2023-03-03T17:49:55.730Z,4.70
2023-03-03T17:52:49.679Z,4.60
2023-03-03T17:55:31.117Z,4.50
2023-03-03T17:58:25.748Z,4.40
2023-03-03T18:01:03.041Z,4.40
2023-03-03T18:04:00.484Z,4.20
2023-03-03T18:06:59.745Z,4.10
2023-03-03T18:09:41.562Z,4.00
2023-03-03T18:12:16.828Z,3.90
2023-03-03T18:15:04.207Z,3.80
2023-03-03T18:17:36.453Z,3.70
2023-03-03T18:20:34.122Z,3.50
2023-03-03T18:23:29.777Z,3.40
2023-03-03T18:25:59.979Z,3.30
2023-03-03T18:28:47.838Z,3.10
2023-03-03T18:31:26.435Z,3.00
2023-03-03T18:34:08.250Z,2.90
2023-03-03T18:36:53.601Z,2.80
2023-03-03T19:08:31.652Z,2.00
2023-03-03T19:11:04.172Z,1.90
2023-03-03T19:13:49.222Z,1.90
2023-03-03T19:16:36.881Z,1.80
2023-03-03T19:19:12.830Z,1.80
2023-03-03T19:21:43.161Z,1.70
2023-03-03T19:24:29.766Z,1.60
2023-03-03T19:27:16.624Z,1.60
2023-03-03T19:30:13.398Z,1.60
2023-03-03T19:33:04.801Z,1.60
2023-03-03T19:35:41.843Z,1.50
2023-03-03T19:38:24.547Z,1.50
2023-03-03T19:41:00.832Z,1.40
2023-03-03T19:43:38.379Z,1.40
2023-03-03T19:46:28.349Z,1.30
2023-03-03T19:49:03.527Z,1.20
2023-03-03T19:51:39.380Z,1.20
2023-03-03T19:54:18.494Z,1.10
2023-03-03T19:56:50.963Z,1.10
2023-03-03T19:59:28.144Z,1.00
2023-03-03T20:02:06.954Z,0.90
2023-03-03T20:04:54.399Z,0.80
2023-03-03T20:07:31.270Z,0.80
2023-03-03T20:10:08.528Z,0.80
2023-03-03T20:12:59.988Z,0.70
2023-03-03T20:15:33.451Z,0.60
2023-03-03T20:18:23.472Z,0.60
2023-03-03T20:21:12.924Z,0.50
2023-03-03T20:23:52.941Z,0.40
2023-03-03T20:26:27.259Z,0.40
2023-03-03T20:29:13.077Z,0.30
2023-03-03T20:31:49.552Z,0.50
2023-03-03T20:34:23.943Z,0.20
2023-03-03T20:37:00.201Z,0.30
2023-03-03T20:39:53.595Z,0.20
2023-03-03T20:42:36.471Z,0.10
2023-03-03T20:45:23.013Z,0.00
2023-03-03T20:48:05.238Z,-0.10
2023-03-03T20:50:39.972Z,-0.10
2023-03-03T20:53:19.181Z,-0.10
2023-03-03T20:55:58.910Z,-0.20
2023-03-03T20:58:39.097Z,-0.30
2023-03-03T21:01:10.973Z,-0.40
2023-03-03T21:03:41.975Z,-0.40
2023-03-03T21:06:15.354Z,-0.20
2023-03-03T21:08:48.352Z,-0.60
2023-03-03T21:11:18.390Z,-0.60
2023-03-03T21:13:48.455Z,-0.60
2023-03-03T21:16:33.607Z,-0.50
2023-03-03T21:19:04.069Z,-0.60
2023-03-03T21:21:34.986Z,-0.60
2023-03-03T21:24:03.295Z,-0.70
2023-03-03T21:26:52.676Z,-0.80
2023-03-03T21:29:24.365Z,-0.80
2023-03-03T21:31:55.695Z,-0.80
2023-03-03T21:34:29.943Z,-0.90
2023-03-03T21:36:58.750Z,-0.90
2023-03-03T21:39:30.185Z,-1.00
2023-03-03T21:42:00.947Z,-1.00
2023-03-03T21:44:38.070Z,-1.00
2023-03-03T21:47:09.798Z,-1.00
2023-03-03T21:49:42.108Z,-1.10
2023-03-03T21:57:07.062Z,-1.20
2023-03-03T22:04:33.184Z,-1.30
2023-03-03T22:07:01.786Z,-1.40
2023-03-03T22:16:54.727Z,-1.50
2023-03-03T22:21:52.696Z,-1.50
2023-03-03T22:39:17.326Z,-1.70
2023-03-03T22:44:13.439Z,-1.70
2023-03-03T22:46:41.412Z,-1.80
2023-03-03T22:54:06.107Z,-1.90
2023-03-03T22:56:35.396Z,-1.90
2023-03-03T23:08:56.793Z,-2.00
2023-03-03T23:13:55.020Z,-2.00
2023-03-03T23:28:44.890Z,-2.20
2023-03-03T23:31:14.221Z,-2.30
2023-03-03T23:46:06.602Z,-2.50
2023-03-03T23:48:35.830Z,-2.50
